sensor_id;sensor_type;location;lat;lon;timestamp;P1;durP1;ratioP1;P2;durP2;ratioP2
64791;SDS011;51226;47.504;19.074;2022-12-18T00:00:12;41.90;;;22.03;;
64791;SDS011;51226;47.504;19.074;2022-12-18T00:03:35;47.80;;;25.30;;
64791;SDS011;51226;47.504;19.074;2022-12-18T00:06:39;43.35;;;21.83;;
64791;SDS011;51226;47.504;19.074;2022-12-18T00:12:45;42.22;;;22.13;;
64791;SDS011;51226;47.504;19.074;2022-12-18T00:15:48;42.73;;;23.03;;
64791;SDS011;51226;47.504;19.074;2022-12-18T00:18:52;43.47;;;22.33;;
64791;SDS011;51226;47.504;19.074;2022-12-18T00:21:56;46.00;;;23.00;;
64791;SDS011;51226;47.504;19.074;2022-12-18T00:25:00;42.53;;;20.65;;
64791;SDS011;51226;47.504;19.074;2022-12-18T00:28:03;43.28;;;22.35;;
64791;SDS011;51226;47.504;19.074;2022-12-18T00:31:07;46.10;;;21.95;;
64791;SDS011;51226;47.504;19.074;2022-12-18T00:34:12;42.97;;;23.42;;
64791;SDS011;51226;47.504;19.074;2022-12-18T00:37:15;42.70;;;22.90;;
64791;SDS011;51226;47.504;19.074;2022-12-18T00:40:25;44.75;;;22.98;;
64791;SDS011;51226;47.504;19.074;2022-12-18T00:43:28;42.78;;;22.15;;
64791;SDS011;51226;47.504;19.074;2022-12-18T00:46:31;44.13;;;22.35;;
64791;SDS011;51226;47.504;19.074;2022-12-18T00:49:34;40.38;;;21.70;;
64791;SDS011;51226;47.504;19.074;2022-12-18T00:52:37;43.30;;;22.15;;
64791;SDS011;51226;47.504;19.074;2022-12-18T00:55:40;43.38;;;21.75;;
64791;SDS011;51226;47.504;19.074;2022-12-18T01:01:46;43.95;;;20.90;;
64791;SDS011;51226;47.504;19.074;2022-12-18T01:04:50;40.47;;;20.77;;
64791;SDS011;51226;47.504;19.074;2022-12-18T01:07:54;38.00;;;21.27;;
64791;SDS011;51226;47.504;19.074;2022-12-18T01:10:58;37.08;;;20.23;;
64791;SDS011;51226;47.504;19.074;2022-12-18T01:14:00;44.35;;;21.87;;
64791;SDS011;51226;47.504;19.074;2022-12-18T01:17:03;37.97;;;18.77;;
64791;SDS011;51226;47.504;19.074;2022-12-18T01:20:07;41.85;;;23.10;;
64791;SDS011;51226;47.504;19.074;2022-12-18T01:23:11;39.40;;;20.02;;
64791;SDS011;51226;47.504;19.074;2022-12-18T01:26:14;40.92;;;21.33;;
64791;SDS011;51226;47.504;19.074;2022-12-18T01:29:18;40.12;;;20.90;;
64791;SDS011;51226;47.504;19.074;2022-12-18T01:32:21;45.12;;;22.80;;
64791;SDS011;51226;47.504;19.074;2022-12-18T01:38:28;42.58;;;21.45;;
64791;SDS011;51226;47.504;19.074;2022-12-18T01:41:31;42.83;;;22.08;;
64791;SDS011;51226;47.504;19.074;2022-12-18T01:48:06;41.05;;;21.08;;
64791;SDS011;51226;47.504;19.074;2022-12-18T01:51:11;43.95;;;21.40;;
64791;SDS011;51226;47.504;19.074;2022-12-18T01:54:15;39.42;;;20.73;;
64791;SDS011;51226;47.504;19.074;2022-12-18T01:57:18;38.97;;;20.75;;
64791;SDS011;51226;47.504;19.074;2022-12-18T02:00:22;40.85;;;22.05;;
64791;SDS011;51226;47.504;19.074;2022-12-18T02:03:26;42.22;;;23.12;;
64791;SDS011;51226;47.504;19.074;2022-12-18T02:06:37;44.83;;;21.33;;
64791;SDS011;51226;47.504;19.074;2022-12-18T02:09:48;40.70;;;21.67;;
64791;SDS011;51226;47.504;19.074;2022-12-18T02:13:11;40.80;;;20.88;;
64791;SDS011;51226;47.504;19.074;2022-12-18T02:16:24;47.45;;;22.87;;
64791;SDS011;51226;47.504;19.074;2022-12-18T02:19:41;39.58;;;21.23;;
64791;SDS011;51226;47.504;19.074;2022-12-18T02:29:53;39.15;;;21.35;;
64791;SDS011;51226;47.504;19.074;2022-12-18T02:33:02;45.80;;;22.52;;
64791;SDS011;51226;47.504;19.074;2022-12-18T02:36:08;45.40;;;23.85;;
64791;SDS011;51226;47.504;19.074;2022-12-18T02:39:13;41.70;;;21.50;;
64791;SDS011;51226;47.504;19.074;2022-12-18T02:42:19;40.95;;;20.67;;
64791;SDS011;51226;47.504;19.074;2022-12-18T02:45:22;42.75;;;22.37;;
64791;SDS011;51226;47.504;19.074;2022-12-18T02:48:31;44.53;;;22.15;;
64791;SDS011;51226;47.504;19.074;2022-12-18T02:51:39;42.97;;;22.80;;
64791;SDS011;51226;47.504;19.074;2022-12-18T02:55:08;45.40;;;22.42;;
64791;SDS011;51226;47.504;19.074;2022-12-18T02:58:15;45.85;;;25.40;;
64791;SDS011;51226;47.504;19.074;2022-12-18T03:01:30;44.30;;;23.87;;
64791;SDS011;51226;47.504;19.074;2022-12-18T03:04:43;45.72;;;23.58;;
64791;SDS011;51226;47.504;19.074;2022-12-18T03:08:04;41.00;;;21.00;;
64791;SDS011;51226;47.504;19.074;2022-12-18T03:11:12;50.50;;;23.80;;
64791;SDS011;51226;47.504;19.074;2022-12-18T03:14:16;40.30;;;21.33;;
64791;SDS011;51226;47.504;19.074;2022-12-18T03:17:24;43.10;;;21.98;;
64791;SDS011;51226;47.504;19.074;2022-12-18T03:20:31;46.35;;;23.30;;
64791;SDS011;51226;47.504;19.074;2022-12-18T03:23:39;42.80;;;23.23;;
64791;SDS011;51226;47.504;19.074;2022-12-18T03:26:46;47.92;;;24.25;;
64791;SDS011;51226;47.504;19.074;2022-12-18T03:29:55;45.55;;;24.52;;
64791;SDS011;51226;47.504;19.074;2022-12-18T03:36:56;40.55;;;22.92;;
64791;SDS011;51226;47.504;19.074;2022-12-18T03:39:59;44.33;;;22.15;;
64791;SDS011;51226;47.504;19.074;2022-12-18T03:43:08;45.92;;;24.67;;
64791;SDS011;51226;47.504;19.074;2022-12-18T03:52:38;47.55;;;23.80;;
64791;SDS011;51226;47.504;19.074;2022-12-18T03:55:50;43.53;;;23.73;;
64791;SDS011;51226;47.504;19.074;2022-12-18T03:58:54;45.97;;;23.27;;
64791;SDS011;51226;47.504;19.074;2022-12-18T04:02:00;49.33;;;24.52;;
64791;SDS011;51226;47.504;19.074;2022-12-18T04:05:06;50.25;;;24.92;;
64791;SDS011;51226;47.504;19.074;2022-12-18T04:08:11;48.83;;;23.67;;
64791;SDS011;51226;47.504;19.074;2022-12-18T04:11:16;46.13;;;23.85;;
64791;SDS011;51226;47.504;19.074;2022-12-18T04:14:19;44.20;;;22.37;;
64791;SDS011;51226;47.504;19.074;2022-12-18T04:17:22;45.17;;;25.45;;
64791;SDS011;51226;47.504;19.074;2022-12-18T04:20:26;46.15;;;23.48;;
64791;SDS011;51226;47.504;19.074;2022-12-18T04:23:29;52.55;;;23.02;;
64791;SDS011;51226;47.504;19.074;2022-12-18T04:26:32;47.67;;;23.65;;
64791;SDS011;51226;47.504;19.074;2022-12-18T04:29:35;47.83;;;24.48;;
64791;SDS011;51226;47.504;19.074;2022-12-18T04:32:38;51.13;;;22.85;;
64791;SDS011;51226;47.504;19.074;2022-12-18T04:35:42;45.58;;;23.73;;
64791;SDS011;51226;47.504;19.074;2022-12-18T04:38:45;48.50;;;24.85;;
64791;SDS011;51226;47.504;19.074;2022-12-18T04:41:49;46.58;;;23.20;;
64791;SDS011;51226;47.504;19.074;2022-12-18T04:44:52;46.28;;;23.55;;
64791;SDS011;51226;47.504;19.074;2022-12-18T04:47:56;43.53;;;22.55;;
64791;SDS011;51226;47.504;19.074;2022-12-18T04:51:03;46.00;;;22.65;;
64791;SDS011;51226;47.504;19.074;2022-12-18T04:54:07;48.72;;;24.90;;
64791;SDS011;51226;47.504;19.074;2022-12-18T04:57:10;44.93;;;22.83;;
64791;SDS011;51226;47.504;19.074;2022-12-18T05:00:12;44.28;;;22.30;;
64791;SDS011;51226;47.504;19.074;2022-12-18T05:03:16;44.22;;;22.75;;
64791;SDS011;51226;47.504;19.074;2022-12-18T05:06:18;46.13;;;22.80;;
64791;SDS011;51226;47.504;19.074;2022-12-18T05:09:22;49.43;;;24.07;;
64791;SDS011;51226;47.504;19.074;2022-12-18T05:12:25;46.70;;;24.55;;
64791;SDS011;51226;47.504;19.074;2022-12-18T05:15:31;46.67;;;23.23;;
64791;SDS011;51226;47.504;19.074;2022-12-18T05:18:35;49.38;;;23.62;;
64791;SDS011;51226;47.504;19.074;2022-12-18T05:21:37;43.50;;;23.42;;
64791;SDS011;51226;47.504;19.074;2022-12-18T05:24:40;45.30;;;23.73;;
64791;SDS011;51226;47.504;19.074;2022-12-18T05:27:43;46.72;;;23.55;;
64791;SDS011;51226;47.504;19.074;2022-12-18T05:30:47;45.42;;;23.65;;
64791;SDS011;51226;47.504;19.074;2022-12-18T05:33:52;49.08;;;24.77;;
64791;SDS011;51226;47.504;19.074;2022-12-18T05:36:54;52.30;;;24.85;;
64791;SDS011;51226;47.504;19.074;2022-12-18T05:39:57;47.75;;;24.25;;
64791;SDS011;51226;47.504;19.074;2022-12-18T05:43:00;45.70;;;23.83;;
64791;SDS011;51226;47.504;19.074;2022-12-18T05:46:03;50.00;;;22.50;;
64791;SDS011;51226;47.504;19.074;2022-12-18T05:49:10;49.00;;;23.35;;
64791;SDS011;51226;47.504;19.074;2022-12-18T05:52:13;45.53;;;24.23;;
64791;SDS011;51226;47.504;19.074;2022-12-18T05:55:16;50.90;;;23.95;;
64791;SDS011;51226;47.504;19.074;2022-12-18T05:58:19;47.75;;;23.90;;
64791;SDS011;51226;47.504;19.074;2022-12-18T06:01:23;55.47;;;25.90;;
64791;SDS011;51226;47.504;19.074;2022-12-18T06:04:29;45.65;;;24.27;;
64791;SDS011;51226;47.504;19.074;2022-12-18T06:07:31;50.33;;;24.98;;
64791;SDS011;51226;47.504;19.074;2022-12-18T06:10:34;50.08;;;24.27;;
64791;SDS011;51226;47.504;19.074;2022-12-18T06:13:37;52.50;;;23.12;;
64791;SDS011;51226;47.504;19.074;2022-12-18T06:16:41;51.08;;;24.87;;
64791;SDS011;51226;47.504;19.074;2022-12-18T06:19:44;49.88;;;23.58;;
64791;SDS011;51226;47.504;19.074;2022-12-18T06:22:47;45.20;;;23.42;;
64791;SDS011;51226;47.504;19.074;2022-12-18T06:25:50;46.22;;;22.35;;
64791;SDS011;51226;47.504;19.074;2022-12-18T06:31:56;48.20;;;23.17;;
64791;SDS011;51226;47.504;19.074;2022-12-18T06:34:59;48.28;;;24.10;;
64791;SDS011;51226;47.504;19.074;2022-12-18T06:38:02;53.08;;;26.17;;
64791;SDS011;51226;47.504;19.074;2022-12-18T06:41:06;57.05;;;27.95;;
64791;SDS011;51226;47.504;19.074;2022-12-18T06:44:12;52.67;;;24.65;;
64791;SDS011;51226;47.504;19.074;2022-12-18T06:47:15;50.53;;;23.65;;
64791;SDS011;51226;47.504;19.074;2022-12-18T06:50:18;49.35;;;25.30;;
64791;SDS011;51226;47.504;19.074;2022-12-18T06:53:21;53.70;;;25.98;;
64791;SDS011;51226;47.504;19.074;2022-12-18T06:56:23;47.50;;;24.47;;
64791;SDS011;51226;47.504;19.074;2022-12-18T06:59:26;51.37;;;24.58;;
64791;SDS011;51226;47.504;19.074;2022-12-18T07:02:29;48.38;;;24.70;;
64791;SDS011;51226;47.504;19.074;2022-12-18T07:05:33;51.40;;;25.90;;
64791;SDS011;51226;47.504;19.074;2022-12-18T07:08:36;51.50;;;26.50;;
64791;SDS011;51226;47.504;19.074;2022-12-18T07:11:39;47.53;;;25.25;;
64791;SDS011;51226;47.504;19.074;2022-12-18T07:14:41;47.72;;;25.77;;
64791;SDS011;51226;47.504;19.074;2022-12-18T07:17:44;86.07;;;44.17;;
64791;SDS011;51226;47.504;19.074;2022-12-18T07:20:47;55.83;;;28.73;;
64791;SDS011;51226;47.504;19.074;2022-12-18T07:23:50;48.75;;;26.60;;
64791;SDS011;51226;47.504;19.074;2022-12-18T07:26:53;54.40;;;27.50;;
64791;SDS011;51226;47.504;19.074;2022-12-18T07:29:56;51.45;;;26.85;;
64791;SDS011;51226;47.504;19.074;2022-12-18T07:32:59;46.03;;;25.40;;
64791;SDS011;51226;47.504;19.074;2022-12-18T07:36:03;50.85;;;26.20;;
64791;SDS011;51226;47.504;19.074;2022-12-18T07:39:07;53.17;;;26.33;;
64791;SDS011;51226;47.504;19.074;2022-12-18T07:42:10;46.40;;;24.23;;
64791;SDS011;51226;47.504;19.074;2022-12-18T07:45:31;50.10;;;27.33;;
64791;SDS011;51226;47.504;19.074;2022-12-18T07:48:34;49.72;;;26.02;;
64791;SDS011;51226;47.504;19.074;2022-12-18T07:51:36;47.20;;;24.27;;
64791;SDS011;51226;47.504;19.074;2022-12-18T07:54:39;53.45;;;28.10;;
64791;SDS011;51226;47.504;19.074;2022-12-18T07:57:42;45.00;;;27.63;;
64791;SDS011;51226;47.504;19.074;2022-12-18T08:04:07;45.50;;;25.48;;
64791;SDS011;51226;47.504;19.074;2022-12-18T08:07:10;46.65;;;25.10;;
64791;SDS011;51226;47.504;19.074;2022-12-18T08:10:13;47.88;;;25.67;;
64791;SDS011;51226;47.504;19.074;2022-12-18T08:13:16;50.10;;;27.30;;
64791;SDS011;51226;47.504;19.074;2022-12-18T08:16:19;49.70;;;26.75;;
64791;SDS011;51226;47.504;19.074;2022-12-18T08:19:23;49.65;;;26.92;;
64791;SDS011;51226;47.504;19.074;2022-12-18T08:22:26;65.05;;;34.65;;
64791;SDS011;51226;47.504;19.074;2022-12-18T08:25:29;52.35;;;27.23;;
64791;SDS011;51226;47.504;19.074;2022-12-18T08:28:32;53.53;;;27.83;;
64791;SDS011;51226;47.504;19.074;2022-12-18T08:34:38;49.33;;;26.75;;
64791;SDS011;51226;47.504;19.074;2022-12-18T08:37:40;48.63;;;26.45;;
64791;SDS011;51226;47.504;19.074;2022-12-18T08:40:43;46.58;;;26.95;;
64791;SDS011;51226;47.504;19.074;2022-12-18T08:43:46;47.13;;;27.85;;
64791;SDS011;51226;47.504;19.074;2022-12-18T08:47:08;47.35;;;27.77;;
64791;SDS011;51226;47.504;19.074;2022-12-18T08:50:10;45.78;;;29.00;;
64791;SDS011;51226;47.504;19.074;2022-12-18T08:53:14;44.97;;;29.55;;
64791;SDS011;51226;47.504;19.074;2022-12-18T08:56:17;43.85;;;29.17;;
64791;SDS011;51226;47.504;19.074;2022-12-18T08:59:22;43.80;;;28.62;;
64791;SDS011;51226;47.504;19.074;2022-12-18T09:02:26;41.00;;;28.40;;
64791;SDS011;51226;47.504;19.074;2022-12-18T09:05:29;41.08;;;28.42;;
64791;SDS011;51226;47.504;19.074;2022-12-18T09:08:35;39.20;;;26.98;;
64791;SDS011;51226;47.504;19.074;2022-12-18T09:11:39;44.85;;;28.83;;
64791;SDS011;51226;47.504;19.074;2022-12-18T09:14:42;43.83;;;29.10;;
64791;SDS011;51226;47.504;19.074;2022-12-18T09:17:45;46.95;;;30.02;;
64791;SDS011;51226;47.504;19.074;2022-12-18T09:20:48;40.35;;;27.45;;
64791;SDS011;51226;47.504;19.074;2022-12-18T09:23:53;38.78;;;26.37;;
64791;SDS011;51226;47.504;19.074;2022-12-18T09:26:57;43.47;;;28.27;;
64791;SDS011;51226;47.504;19.074;2022-12-18T09:30:00;40.00;;;26.12;;
64791;SDS011;51226;47.504;19.074;2022-12-18T09:33:03;37.03;;;23.83;;
64791;SDS011;51226;47.504;19.074;2022-12-18T09:36:09;39.63;;;25.02;;
64791;SDS011;51226;47.504;19.074;2022-12-18T09:39:13;42.38;;;24.25;;
64791;SDS011;51226;47.504;19.074;2022-12-18T09:42:20;41.85;;;25.42;;
64791;SDS011;51226;47.504;19.074;2022-12-18T09:45:24;40.58;;;26.37;;
64791;SDS011;51226;47.504;19.074;2022-12-18T09:48:28;38.42;;;26.35;;
64791;SDS011;51226;47.504;19.074;2022-12-18T09:51:36;39.88;;;25.62;;
64791;SDS011;51226;47.504;19.074;2022-12-18T09:54:50;36.13;;;25.33;;
64791;SDS011;51226;47.504;19.074;2022-12-18T09:58:00;42.47;;;26.98;;
64791;SDS011;51226;47.504;19.074;2022-12-18T10:01:26;39.25;;;26.50;;
64791;SDS011;51226;47.504;19.074;2022-12-18T10:04:46;42.85;;;28.00;;
64791;SDS011;51226;47.504;19.074;2022-12-18T10:14:34;41.15;;;27.17;;
64791;SDS011;51226;47.504;19.074;2022-12-18T10:21:32;40.15;;;27.73;;
64791;SDS011;51226;47.504;19.074;2022-12-18T10:27:54;38.95;;;26.77;;
64791;SDS011;51226;47.504;19.074;2022-12-18T10:31:00;37.72;;;27.08;;
64791;SDS011;51226;47.504;19.074;2022-12-18T10:37:06;37.00;;;25.27;;
64791;SDS011;51226;47.504;19.074;2022-12-18T10:40:17;42.22;;;27.83;;
64791;SDS011;51226;47.504;19.074;2022-12-18T10:46:33;39.85;;;28.17;;
64791;SDS011;51226;47.504;19.074;2022-12-18T10:49:37;39.70;;;27.20;;
64791;SDS011;51226;47.504;19.074;2022-12-18T10:52:55;40.03;;;28.02;;
64791;SDS011;51226;47.504;19.074;2022-12-18T10:56:00;39.65;;;27.62;;
64791;SDS011;51226;47.504;19.074;2022-12-18T10:59:07;36.03;;;27.10;;
64791;SDS011;51226;47.504;19.074;2022-12-18T11:02:24;36.72;;;28.38;;
64791;SDS011;51226;47.504;19.074;2022-12-18T11:05:31;38.75;;;27.65;;
64791;SDS011;51226;47.504;19.074;2022-12-18T11:08:40;41.22;;;28.17;;
64791;SDS011;51226;47.504;19.074;2022-12-18T11:11:52;43.20;;;28.48;;
64791;SDS011;51226;47.504;19.074;2022-12-18T11:14:57;39.77;;;27.80;;
64791;SDS011;51226;47.504;19.074;2022-12-18T11:18:02;34.55;;;25.00;;
64791;SDS011;51226;47.504;19.074;2022-12-18T11:21:08;39.47;;;26.30;;
64791;SDS011;51226;47.504;19.074;2022-12-18T11:24:32;39.03;;;26.98;;
64791;SDS011;51226;47.504;19.074;2022-12-18T11:27:37;38.72;;;28.60;;
64791;SDS011;51226;47.504;19.074;2022-12-18T11:30:41;41.28;;;28.77;;
64791;SDS011;51226;47.504;19.074;2022-12-18T11:33:46;39.17;;;27.92;;
64791;SDS011;51226;47.504;19.074;2022-12-18T11:37:16;38.70;;;27.17;;
64791;SDS011;51226;47.504;19.074;2022-12-18T11:40:23;38.55;;;27.00;;
64791;SDS011;51226;47.504;19.074;2022-12-18T11:43:50;37.20;;;27.35;;
64791;SDS011;51226;47.504;19.074;2022-12-18T11:50:47;39.53;;;27.05;;
64791;SDS011;51226;47.504;19.074;2022-12-18T11:53:56;38.75;;;26.27;;
64791;SDS011;51226;47.504;19.074;2022-12-18T11:57:09;37.97;;;27.35;;
64791;SDS011;51226;47.504;19.074;2022-12-18T12:00:22;34.47;;;25.35;;
64791;SDS011;51226;47.504;19.074;2022-12-18T12:03:47;37.25;;;27.92;;
64791;SDS011;51226;47.504;19.074;2022-12-18T12:10:36;38.28;;;27.50;;
64791;SDS011;51226;47.504;19.074;2022-12-18T12:17:32;33.23;;;26.57;;
64791;SDS011;51226;47.504;19.074;2022-12-18T12:30:20;35.20;;;26.12;;
64791;SDS011;51226;47.504;19.074;2022-12-18T12:33:32;34.22;;;26.30;;
64791;SDS011;51226;47.504;19.074;2022-12-18T12:36:52;35.83;;;25.92;;
64791;SDS011;51226;47.504;19.074;2022-12-18T12:40:02;40.25;;;27.37;;
64791;SDS011;51226;47.504;19.074;2022-12-18T12:47:19;38.17;;;26.62;;
64791;SDS011;51226;47.504;19.074;2022-12-18T12:50:28;34.35;;;25.52;;
64791;SDS011;51226;47.504;19.074;2022-12-18T12:53:36;36.00;;;26.00;;
64791;SDS011;51226;47.504;19.074;2022-12-18T12:56:50;33.17;;;23.80;;
64791;SDS011;51226;47.504;19.074;2022-12-18T13:03:21;30.37;;;21.85;;
64791;SDS011;51226;47.504;19.074;2022-12-18T13:13:28;28.17;;;20.58;;
64791;SDS011;51226;47.504;19.074;2022-12-18T13:17:03;30.37;;;20.62;;
64791;SDS011;51226;47.504;19.074;2022-12-18T13:20:24;34.78;;;21.12;;
64791;SDS011;51226;47.504;19.074;2022-12-18T13:23:37;39.90;;;22.62;;
64791;SDS011;51226;47.504;19.074;2022-12-18T13:26:40;35.75;;;20.60;;
64791;SDS011;51226;47.504;19.074;2022-12-18T13:29:44;33.88;;;20.12;;
64791;SDS011;51226;47.504;19.074;2022-12-18T13:32:48;35.70;;;20.70;;
64791;SDS011;51226;47.504;19.074;2022-12-18T13:36:33;31.87;;;18.33;;
64791;SDS011;51226;47.504;19.074;2022-12-18T13:39:37;37.88;;;20.92;;
64791;SDS011;51226;47.504;19.074;2022-12-18T13:42:42;30.65;;;18.50;;
64791;SDS011;51226;47.504;19.074;2022-12-18T13:49:41;38.38;;;21.62;;
64791;SDS011;51226;47.504;19.074;2022-12-18T13:52:46;39.25;;;21.83;;
64791;SDS011;51226;47.504;19.074;2022-12-18T13:55:49;40.10;;;23.10;;
64791;SDS011;51226;47.504;19.074;2022-12-18T14:02:16;38.40;;;21.70;;
64791;SDS011;51226;47.504;19.074;2022-12-18T14:05:31;40.70;;;21.60;;
64791;SDS011;51226;47.504;19.074;2022-12-18T14:08:40;40.63;;;23.75;;
64791;SDS011;51226;47.504;19.074;2022-12-18T14:11:47;52.90;;;28.10;;
64791;SDS011;51226;47.504;19.074;2022-12-18T14:14:52;55.40;;;31.73;;
64791;SDS011;51226;47.504;19.074;2022-12-18T14:21:27;57.30;;;30.17;;
64791;SDS011;51226;47.504;19.074;2022-12-18T14:24:32;65.82;;;34.25;;
64791;SDS011;51226;47.504;19.074;2022-12-18T14:27:36;63.93;;;33.57;;
64791;SDS011;51226;47.504;19.074;2022-12-18T14:30:41;60.72;;;31.25;;
64791;SDS011;51226;47.504;19.074;2022-12-18T14:33:46;66.12;;;34.47;;
64791;SDS011;51226;47.504;19.074;2022-12-18T14:36:52;59.88;;;32.30;;
64791;SDS011;51226;47.504;19.074;2022-12-18T14:39:58;60.53;;;31.17;;
64791;SDS011;51226;47.504;19.074;2022-12-18T14:43:12;59.83;;;31.02;;
64791;SDS011;51226;47.504;19.074;2022-12-18T14:49:33;51.03;;;27.95;;
64791;SDS011;51226;47.504;19.074;2022-12-18T14:52:37;46.20;;;25.12;;
64791;SDS011;51226;47.504;19.074;2022-12-18T14:58:56;43.22;;;22.55;;
64791;SDS011;51226;47.504;19.074;2022-12-18T15:11:47;57.13;;;28.45;;
64791;SDS011;51226;47.504;19.074;2022-12-18T15:14:50;55.92;;;29.08;;
64791;SDS011;51226;47.504;19.074;2022-12-18T15:17:58;60.33;;;31.10;;
64791;SDS011;51226;47.504;19.074;2022-12-18T15:21:07;59.70;;;30.65;;
64791;SDS011;51226;47.504;19.074;2022-12-18T15:24:20;57.13;;;30.08;;
64791;SDS011;51226;47.504;19.074;2022-12-18T15:27:31;60.40;;;30.33;;
64791;SDS011;51226;47.504;19.074;2022-12-18T15:30:35;60.63;;;32.25;;
64791;SDS011;51226;47.504;19.074;2022-12-18T15:33:42;60.40;;;29.15;;
64791;SDS011;51226;47.504;19.074;2022-12-18T15:36:49;59.40;;;30.90;;
64791;SDS011;51226;47.504;19.074;2022-12-18T15:39:53;64.00;;;32.88;;
64791;SDS011;51226;47.504;19.074;2022-12-18T15:42:55;57.17;;;31.37;;
64791;SDS011;51226;47.504;19.074;2022-12-18T15:46:21;62.97;;;31.33;;
64791;SDS011;51226;47.504;19.074;2022-12-18T15:49:25;58.47;;;30.75;;
64791;SDS011;51226;47.504;19.074;2022-12-18T15:52:28;57.22;;;29.65;;
64791;SDS011;51226;47.504;19.074;2022-12-18T15:55:31;62.53;;;28.87;;
64791;SDS011;51226;47.504;19.074;2022-12-18T15:58:52;57.22;;;28.75;;
64791;SDS011;51226;47.504;19.074;2022-12-18T16:01:56;56.70;;;28.95;;
64791;SDS011;51226;47.504;19.074;2022-12-18T16:04:59;61.53;;;32.65;;
64791;SDS011;51226;47.504;19.074;2022-12-18T16:08:01;63.60;;;31.30;;
64791;SDS011;51226;47.504;19.074;2022-12-18T16:11:05;57.08;;;29.25;;
64791;SDS011;51226;47.504;19.074;2022-12-18T16:17:21;59.13;;;31.70;;
64791;SDS011;51226;47.504;19.074;2022-12-18T16:20:24;59.38;;;31.02;;
64791;SDS011;51226;47.504;19.074;2022-12-18T16:23:27;57.95;;;30.05;;
64791;SDS011;51226;47.504;19.074;2022-12-18T16:26:30;58.95;;;30.48;;
64791;SDS011;51226;47.504;19.074;2022-12-18T16:29:34;63.70;;;30.50;;
64791;SDS011;51226;47.504;19.074;2022-12-18T16:32:37;59.78;;;32.08;;
64791;SDS011;51226;47.504;19.074;2022-12-18T16:35:40;58.00;;;29.10;;
64791;SDS011;51226;47.504;19.074;2022-12-18T16:38:43;60.92;;;31.02;;
64791;SDS011;51226;47.504;19.074;2022-12-18T16:41:47;57.45;;;30.27;;
64791;SDS011;51226;47.504;19.074;2022-12-18T16:44:49;58.30;;;31.45;;
64791;SDS011;51226;47.504;19.074;2022-12-18T16:47:53;53.35;;;28.17;;
64791;SDS011;51226;47.504;19.074;2022-12-18T16:51:01;57.38;;;31.12;;
64791;SDS011;51226;47.504;19.074;2022-12-18T16:54:06;61.75;;;30.75;;
64791;SDS011;51226;47.504;19.074;2022-12-18T16:57:16;64.65;;;32.65;;
64791;SDS011;51226;47.504;19.074;2022-12-18T17:00:22;65.03;;;32.83;;
64791;SDS011;51226;47.504;19.074;2022-12-18T17:03:25;62.22;;;32.03;;
64791;SDS011;51226;47.504;19.074;2022-12-18T17:06:30;57.22;;;29.42;;
64791;SDS011;51226;47.504;19.074;2022-12-18T17:09:35;59.17;;;32.17;;
64791;SDS011;51226;47.504;19.074;2022-12-18T17:12:39;65.03;;;33.03;;
64791;SDS011;51226;47.504;19.074;2022-12-18T17:15:42;61.73;;;32.93;;
64791;SDS011;51226;47.504;19.074;2022-12-18T17:18:45;58.70;;;32.05;;
64791;SDS011;51226;47.504;19.074;2022-12-18T17:21:48;60.60;;;32.30;;
64791;SDS011;51226;47.504;19.074;2022-12-18T17:24:52;61.17;;;33.70;;
64791;SDS011;51226;47.504;19.074;2022-12-18T17:27:55;64.15;;;33.05;;
64791;SDS011;51226;47.504;19.074;2022-12-18T17:30:58;75.97;;;35.53;;
64791;SDS011;51226;47.504;19.074;2022-12-18T17:34:01;57.67;;;31.73;;
64791;SDS011;51226;47.504;19.074;2022-12-18T17:37:05;60.35;;;29.98;;
64791;SDS011;51226;47.504;19.074;2022-12-18T17:40:08;61.03;;;32.07;;
64791;SDS011;51226;47.504;19.074;2022-12-18T17:43:11;52.80;;;29.58;;
64791;SDS011;51226;47.504;19.074;2022-12-18T17:46:14;63.40;;;31.13;;
64791;SDS011;51226;47.504;19.074;2022-12-18T17:49:17;60.40;;;29.87;;
64791;SDS011;51226;47.504;19.074;2022-12-18T17:52:20;66.43;;;34.20;;
64791;SDS011;51226;47.504;19.074;2022-12-18T17:55:23;58.38;;;30.67;;
64791;SDS011;51226;47.504;19.074;2022-12-18T17:58:27;61.28;;;32.47;;
64791;SDS011;51226;47.504;19.074;2022-12-18T18:01:30;64.60;;;31.15;;
64791;SDS011;51226;47.504;19.074;2022-12-18T18:07:37;66.55;;;32.63;;
64791;SDS011;51226;47.504;19.074;2022-12-18T18:10:41;64.45;;;31.65;;
64791;SDS011;51226;47.504;19.074;2022-12-18T18:13:43;68.47;;;34.75;;
64791;SDS011;51226;47.504;19.074;2022-12-18T18:17:05;62.83;;;32.00;;
64791;SDS011;51226;47.504;19.074;2022-12-18T18:20:08;63.47;;;31.98;;
64791;SDS011;51226;47.504;19.074;2022-12-18T18:23:12;63.72;;;32.92;;
64791;SDS011;51226;47.504;19.074;2022-12-18T18:26:14;63.30;;;33.10;;
64791;SDS011;51226;47.504;19.074;2022-12-18T18:29:19;65.80;;;34.10;;
64791;SDS011;51226;47.504;19.074;2022-12-18T18:32:27;65.35;;;34.92;;
64791;SDS011;51226;47.504;19.074;2022-12-18T18:35:30;62.17;;;34.03;;
64791;SDS011;51226;47.504;19.074;2022-12-18T18:38:53;71.10;;;35.88;;
64791;SDS011;51226;47.504;19.074;2022-12-18T18:41:56;66.30;;;34.25;;
64791;SDS011;51226;47.504;19.074;2022-12-18T18:44:58;67.93;;;34.50;;
64791;SDS011;51226;47.504;19.074;2022-12-18T18:48:01;67.05;;;34.40;;
64791;SDS011;51226;47.504;19.074;2022-12-18T18:51:05;61.28;;;32.60;;
64791;SDS011;51226;47.504;19.074;2022-12-18T18:54:23;65.50;;;31.55;;
64791;SDS011;51226;47.504;19.074;2022-12-18T18:57:27;71.15;;;36.33;;
64791;SDS011;51226;47.504;19.074;2022-12-18T19:00:32;63.67;;;34.58;;
64791;SDS011;51226;47.504;19.074;2022-12-18T19:03:35;62.05;;;31.33;;
64791;SDS011;51226;47.504;19.074;2022-12-18T19:06:40;61.58;;;32.28;;
64791;SDS011;51226;47.504;19.074;2022-12-18T19:09:44;55.05;;;30.50;;
64791;SDS011;51226;47.504;19.074;2022-12-18T19:12:53;58.13;;;30.35;;
64791;SDS011;51226;47.504;19.074;2022-12-18T19:16:14;59.80;;;30.98;;
64791;SDS011;51226;47.504;19.074;2022-12-18T19:19:17;65.93;;;34.13;;
64791;SDS011;51226;47.504;19.074;2022-12-18T19:22:22;57.95;;;32.03;;
64791;SDS011;51226;47.504;19.074;2022-12-18T19:25:25;71.72;;;33.47;;
64791;SDS011;51226;47.504;19.074;2022-12-18T19:28:42;72.18;;;33.03;;
64791;SDS011;51226;47.504;19.074;2022-12-18T19:31:46;61.83;;;32.00;;
64791;SDS011;51226;47.504;19.074;2022-12-18T19:34:49;63.20;;;32.80;;
64791;SDS011;51226;47.504;19.074;2022-12-18T19:37:52;64.78;;;34.65;;
64791;SDS011;51226;47.504;19.074;2022-12-18T19:40:55;62.40;;;34.45;;
64791;SDS011;51226;47.504;19.074;2022-12-18T19:43:57;61.67;;;33.75;;
64791;SDS011;51226;47.504;19.074;2022-12-18T19:47:00;74.32;;;38.70;;
64791;SDS011;51226;47.504;19.074;2022-12-18T19:50:03;64.47;;;36.15;;
64791;SDS011;51226;47.504;19.074;2022-12-18T19:53:06;68.03;;;37.80;;
64791;SDS011;51226;47.504;19.074;2022-12-18T19:56:13;73.03;;;38.63;;
64791;SDS011;51226;47.504;19.074;2022-12-18T19:59:17;73.93;;;39.92;;